Time;durP1;ratioP1;P1;durP2;ratioP2;P2;SDS_P1;SDS_P2;PMS_P1;PMS_P2;Temp;Humidity;BMP_temperature;BMP_pressure;BME280_temperature;BME280_humidity;BME280_pressure;Samples;Min_cycle;Max_cycle;Signal;HPM_P1;HPM_P2
2022/04/14 00:00:55;;;;;;;57.55;34.67;;;;;;;8.93;66.29;100492.19;5065158;28;20025;-68
2022/04/14 00:03:20;;;;;;;63.00;37.15;;;;;;;8.92;66.57;100493.06;5065228;28;20044;-68
2022/04/14 00:05:46;;;;;;;69.95;38.13;;;;;;;8.90;66.50;100497.38;5046960;28;20056;-69
2022/04/14 00:08:11;;;;;;;67.00;35.53;;;;;;;8.84;67.35;100502.56;5064820;28;20043;-68
2022/04/14 00:10:37;;;;;;;70.65;39.92;;;;;;;8.75;68.17;100487.91;5065030;28;20029;-68
2022/04/14 00:13:02;;;;;;;66.53;38.55;;;;;;;8.73;68.31;100489.59;5064853;28;20452;-68
2022/04/14 00:15:28;;;;;;;62.90;36.88;;;;;;;8.71;68.57;100500.81;5046867;28;20044;-68
2022/04/14 00:17:54;;;;;;;67.10;40.10;;;;;;;8.67;68.57;100490.44;5047085;28;20017;-68
2022/04/14 00:20:19;;;;;;;75.25;41.10;;;;;;;8.61;69.20;100490.44;5064708;28;20067;-68
2022/04/14 00:22:45;;;;;;;72.10;42.50;;;;;;;8.56;69.38;100494.78;5064603;28;20095;-69
2022/04/14 00:25:11;;;;;;;74.40;42.50;;;;;;;8.58;68.86;100489.59;5064811;28;20029;-68
2022/04/14 00:27:37;;;;;;;69.28;40.78;;;;;;;8.46;69.38;100470.56;5046803;28;20065;-68
2022/04/14 00:30:04;;;;;;;70.22;43.00;;;;;;;8.54;69.48;100483.53;5046694;28;20025;-69
2022/04/14 00:32:31;;;;;;;78.22;42.55;;;;;;;8.52;69.80;100490.41;5064471;28;20044;-67
2022/04/14 00:34:57;;;;;;;82.22;43.17;;;;;;;8.53;69.92;100494.75;5046559;28;20020;-68
2022/04/14 00:37:22;;;;;;;66.28;40.38;;;;;;;8.56;70.51;100492.19;5064399;28;20566;-69
2022/04/14 00:39:49;;;;;;;68.32;40.40;;;;;;;8.54;70.10;100496.47;5064435;28;20025;-68
2022/04/14 00:42:15;;;;;;;70.28;42.35;;;;;;;8.53;70.49;100492.16;5064367;28;20025;-68
2022/04/14 00:44:40;;;;;;;83.90;43.15;;;;;;;8.52;70.69;100498.16;5064333;28;20020;-68
2022/04/14 00:47:06;;;;;;;77.40;41.60;;;;;;;8.50;70.52;100498.16;5046299;28;20117;-68
2022/04/14 00:49:33;;;;;;;72.40;43.28;;;;;;;8.52;70.81;100500.75;5046443;28;20481;-68
2022/04/14 00:52:00;;;;;;;74.60;41.42;;;;;;;8.59;70.29;100494.78;5063865;28;20035;-68
2022/04/14 00:54:28;;;;;;;79.45;43.22;;;;;;;8.58;70.34;100487.00;5064153;28;20032;-69
2022/04/14 00:56:55;;;;;;;74.28;43.45;;;;;;;8.60;70.27;100487.84;5064223;28;20123;-68
2022/04/14 00:59:21;;;;;;;81.90;45.47;;;;;;;8.60;70.52;100486.16;5064193;28;20020;-68
2022/04/14 01:01:46;;;;;;;72.80;43.20;;;;;;;8.61;70.54;100487.84;5064069;28;20452;-68
2022/04/14 01:04:12;;;;;;;80.05;44.47;;;;;;;8.60;70.73;100490.44;5064034;28;20021;-69
2022/04/14 01:06:38;;;;;;;76.43;43.60;;;;;;;8.60;70.78;100488.72;5062951;28;20400;-69
2022/04/14 01:09:16;;;;;;;78.20;44.40;;;;;;;8.63;70.53;100488.72;5045759;28;20044;-68
2022/04/14 01:11:44;;;;;;;86.18;49.10;;;;;;;8.62;70.78;100486.16;5063794;28;20025;-68
2022/04/14 01:14:27;;;;;;;90.00;46.60;;;;;;;8.62;71.19;100494.78;5064045;28;20040;-69
2022/04/14 01:16:54;;;;;;;95.88;50.88;;;;;;;8.59;71.36;100481.84;5063570;28;20025;-69
2022/04/14 01:19:20;;;;;;;100.30;49.08;;;;;;;8.64;71.39;100484.44;5062286;28;20020;-68
2022/04/14 01:21:51;;;;;;;111.00;51.40;;;;;;;8.67;71.27;100482.69;5063573;28;20054;-69
2022/04/14 01:24:16;;;;;;;104.73;51.43;;;;;;;8.68;71.71;100476.66;5063770;28;20507;-69
2022/04/14 01:26:42;;;;;;;118.80;54.85;;;;;;;8.66;71.70;100474.91;5063770;28;20025;-68
2022/04/14 01:29:20;;;;;;;126.40;54.33;;;;;;;8.64;72.26;100482.69;5063710;28;20028;-69
2022/04/14 01:31:45;;;;;;;122.25;52.65;;;;;;;8.64;72.76;100481.84;5063333;28;20075;-68
2022/04/14 01:34:10;;;;;;;135.27;52.92;;;;;;;8.65;72.52;100480.97;5063399;28;20021;-69
2022/04/14 01:36:36;;;;;;;137.43;54.38;;;;;;;8.59;72.53;100466.31;5063304;28;20028;-68
2022/04/14 01:39:01;;;;;;;134.98;54.35;;;;;;;8.62;72.77;100471.50;5045257;28;20113;-68
2022/04/14 01:41:26;;;;;;;143.18;55.92;;;;;;;8.65;72.72;100470.63;5063144;28;20584;-69
2022/04/14 01:43:52;;;;;;;132.10;53.22;;;;;;;8.68;72.72;100475.78;5063352;28;20037;-68
2022/04/14 01:46:17;;;;;;;138.15;53.70;;;;;;;8.71;72.51;100473.22;5062959;28;20021;-68
2022/04/14 01:48:42;;;;;;;154.23;55.33;;;;;;;8.71;72.86;100472.34;5063171;28;20100;-69
2022/04/14 01:51:08;;;;;;;151.48;56.00;;;;;;;8.69;72.80;100469.75;5063138;28;20024;-68
2022/04/14 01:53:33;;;;;;;143.48;55.92;;;;;;;8.77;72.68;100464.59;5063017;28;20488;-66
2022/04/14 01:55:58;;;;;;;163.10;58.92;;;;;;;8.76;72.82;100468.91;5063073;28;20051;-67
2022/04/14 01:58:24;;;;;;;153.07;56.78;;;;;;;8.77;72.81;100468.03;5062825;28;20380;-67
2022/04/14 02:00:49;;;;;;;179.20;56.42;;;;;;;8.74;72.75;100449.06;5062937;28;20021;-67
2022/04/14 02:03:14;;;;;;;162.55;57.95;;;;;;;8.73;72.91;100449.91;5062928;28;20396;-67
2022/04/14 02:05:40;;;;;;;187.73;59.53;;;;;;;8.78;72.95;100464.59;5045022;28;20032;-67
2022/04/14 02:08:05;;;;;;;163.00;56.25;;;;;;;8.78;72.97;100466.31;5062542;28;20025;-68
2022/04/14 02:10:31;;;;;;;155.02;56.47;;;;;;;8.71;73.01;100457.69;5062653;28;20028;-67
2022/04/14 02:12:58;;;;;;;164.63;57.40;;;;;;;8.79;73.16;100460.25;5063025;28;20080;-67
2022/04/14 02:15:23;;;;;;;174.27;56.70;;;;;;;8.73;73.56;100462.84;5062691;28;20036;-67
2022/04/14 02:17:49;;;;;;;170.68;56.60;;;;;;;8.72;73.67;100467.16;5062984;28;20029;-68
2022/04/14 02:20:14;;;;;;;184.60;57.83;;;;;;;8.73;73.71;100468.03;5048855;28;20046;-68
2022/04/14 02:22:40;;;;;;;222.10;60.55;;;;;;;8.70;74.00;100468.03;5066381;28;20048;-68
2022/04/14 02:25:06;;;;;;;203.02;55.75;;;;;;;8.65;74.16;100475.78;5067062;28;20027;-67
2022/04/14 02:27:32;;;;;;;207.10;60.33;;;;;;;8.63;74.66;100480.97;5066769;28;20021;-67
2022/04/14 02:29:57;;;;;;;177.73;57.13;;;;;;;8.58;75.16;100479.25;5066520;28;20481;-67
2022/04/14 02:32:22;;;;;;;183.32;57.95;;;;;;;8.54;75.58;100475.75;5048503;28;20032;-67
2022/04/14 02:34:48;;;;;;;208.43;58.03;;;;;;;8.50;75.39;100461.09;5066577;28;20032;-68
2022/04/14 02:37:13;;;;;;;203.38;56.03;;;;;;;8.58;75.07;100474.91;5065078;28;20028;-68
2022/04/14 02:39:39;;;;;;;226.15;56.80;;;;;;;8.55;74.83;100480.09;5066636;28;20040;-68
2022/04/14 02:42:05;;;;;;;200.70;55.05;;;;;;;8.52;74.90;100464.53;5066281;28;20028;-68
2022/04/14 02:44:30;;;;;;;271.40;60.33;;;;;;;8.53;74.98;100461.09;5066698;28;20053;-68
2022/04/14 02:46:56;;;;;;;192.73;51.80;;;;;;;8.50;75.09;100450.75;5066836;28;20051;-68
2022/04/14 02:49:22;;;;;;;208.68;49.50;;;;;;;8.48;75.86;100440.38;5066698;28;20104;-68
2022/04/14 02:51:48;;;;;;;145.27;46.22;;;;;;;8.31;76.74;100438.66;5048436;28;20032;-68
2022/04/14 02:54:13;;;;;;;185.98;58.72;;;;;;;8.23;76.99;100440.34;5066293;28;20024;-68
2022/04/14 02:56:38;;;;;;;140.40;51.63;;;;;;;8.09;77.81;100434.28;5066383;28;20084;-68
2022/04/14 02:59:04;;;;;;;181.45;57.10;;;;;;;8.00;78.23;100448.06;5066416;28;20078;-68
2022/04/14 03:01:29;;;;;;;214.93;62.35;;;;;;;7.89;78.71;100443.69;5066092;28;20403;-68
2022/04/14 03:03:55;;;;;;;226.13;67.90;;;;;;;7.84;78.76;100450.59;5048305;28;20051;-69
2022/04/14 03:06:20;;;;;;;229.95;71.95;;;;;;;7.84;78.76;100458.34;5048218;28;20096;-68
2022/04/14 03:08:45;;;;;;;227.70;70.47;;;;;;;7.84;78.78;100460.94;5047854;28;20024;-67
2022/04/14 03:11:12;;;;;;;245.82;75.75;;;;;;;7.87;79.10;100453.19;5066210;28;20017;-68
2022/04/14 03:13:38;;;;;;;258.50;73.35;;;;;;;7.88;79.37;100465.25;5066155;28;20020;-68
2022/04/14 03:16:04;;;;;;;236.18;71.65;;;;;;;7.89;79.31;100455.78;5065767;28;20021;-68
2022/04/14 03:18:29;;;;;;;240.00;73.53;;;;;;;7.97;79.59;100472.16;5065955;28;20032;-69
2022/04/14 03:20:55;;;;;;;251.68;71.95;;;;;;;8.02;79.33;100469.63;5065692;28;20044;-68
2022/04/14 03:23:20;;;;;;;266.00;73.03;;;;;;;8.01;79.28;100457.53;5065710;28;20017;-70
2022/04/14 03:25:45;;;;;;;519.83;89.05;;;;;;;8.05;79.43;100449.78;5066006;28;20108;-69
2022/04/14 03:28:11;;;;;;;332.42;71.72;;;;;;;8.05;79.46;100454.13;5065825;28;20025;-69
2022/04/14 03:30:36;;;;;;;279.00;69.00;;;;;;;8.09;79.50;100458.44;5064252;28;20044;-69
2022/04/14 03:33:01;;;;;;;280.58;73.53;;;;;;;7.99;79.59;100449.78;5065769;28;20124;-68
2022/04/14 03:35:27;;;;;;;241.15;73.65;;;;;;;7.98;80.09;100458.41;5065525;28;20029;-68
2022/04/14 03:37:52;;;;;;;290.60;70.38;;;;;;;7.98;80.16;100457.53;5065318;28;20029;-68
2022/04/14 03:40:18;;;;;;;265.38;66.93;;;;;;;7.97;80.55;100455.81;5047368;28;20055;-68
2022/04/14 03:42:43;;;;;;;277.55;67.82;;;;;;;7.96;80.85;100460.09;5047379;28;20029;-68
2022/04/14 03:45:10;;;;;;;309.02;71.10;;;;;;;7.99;81.00;100461.81;5065517;28;20020;-68
2022/04/14 03:47:35;;;;;;;296.73;67.28;;;;;;;7.98;80.97;100470.44;5047447;28;20048;-68
2022/04/14 03:50:01;;;;;;;279.10;70.75;;;;;;;7.98;81.11;100467.88;5065472;28;20021;-68
2022/04/14 03:52:27;;;;;;;277.85;70.13;;;;;;;7.97;81.31;100471.31;5065132;28;20025;-68
2022/04/14 03:54:52;;;;;;;284.92;67.75;;;;;;;7.94;81.38;100464.41;5065405;28;20035;-67
2022/04/14 03:57:17;;;;;;;358.63;75.07;;;;;;;7.97;81.43;100466.16;5065130;28;20216;-68
2022/04/14 03:59:42;;;;;;;555.70;92.75;;;;;;;7.97;81.51;100460.97;5065339;28;20053;-68
2022/04/14 04:02:08;;;;;;;452.23;78.15;;;;;;;7.97;81.61;100460.97;5064904;28;20017;-68
2022/04/14 04:04:33;;;;;;;310.85;68.88;;;;;;;7.94;81.59;100452.34;5047115;28;20025;-68
2022/04/14 04:06:59;;;;;;;297.50;68.60;;;;;;;7.97;81.35;100456.66;5065067;28;20112;-68
2022/04/14 04:09:26;;;;;;;665.95;92.90;;;;;;;7.96;81.40;100443.72;5046903;28;20016;-68
2022/04/14 04:11:53;;;;;;;423.45;76.30;;;;;;;7.97;81.61;100443.72;5064853;28;20067;-68
2022/04/14 04:14:18;;;;;;;498.92;81.20;;;;;;;8.01;81.31;100447.19;5064635;28;20024;-68
2022/04/14 04:16:45;;;;;;;351.98;67.40;;;;;;;7.99;81.57;100454.94;5064626;28;20021;-68
2022/04/14 04:19:11;;;;;;;363.65;70.57;;;;;;;7.97;81.77;100455.81;5064774;28;20052;-68
2022/04/14 04:21:36;;;;;;;384.10;69.43;;;;;;;7.94;82.04;100459.22;5046713;28;20021;-69
2022/04/14 04:24:01;;;;;;;395.52;69.35;;;;;;;7.91;82.25;100447.16;5064627;28;20020;-68
2022/04/14 04:26:27;;;;;;;346.30;72.40;;;;;;;7.92;82.54;100450.63;5064588;28;20024;-69
2022/04/14 04:28:52;;;;;;;392.00;68.47;;;;;;;7.92;82.82;100454.06;5046810;28;20575;-68
2022/04/14 04:31:17;;;;;;;453.52;75.65;;;;;;;7.96;82.58;100454.06;5046207;28;20128;-68
2022/04/14 04:33:43;;;;;;;334.42;62.42;;;;;;;7.92;82.88;100455.78;5064460;28;20047;-68
2022/04/14 04:36:08;;;;;;;311.48;62.97;;;;;;;7.91;83.13;100460.09;5064476;28;20048;-70
2022/04/14 04:38:33;;;;;;;359.75;66.57;;;;;;;7.88;83.59;100460.09;5046339;28;20143;-69
2022/04/14 04:40:59;;;;;;;378.08;71.50;;;;;;;7.87;83.61;100463.53;5064199;28;20024;-69
2022/04/14 04:43:25;;;;;;;426.27;66.43;;;;;;;7.89;83.55;100458.38;5064411;28;20079;-70
2022/04/14 04:45:51;;;;;;;450.17;75.88;;;;;;;7.83;84.09;100454.03;5064295;28;20051;-71
2022/04/14 04:48:16;;;;;;;530.28;77.00;;;;;;;7.83;83.92;100455.78;5064252;28;20025;-70
2022/04/14 04:50:42;;;;;;;614.58;88.68;;;;;;;7.80;84.00;100451.44;5046269;28;20021;-70
2022/04/14 04:53:07;;;;;;;475.70;76.38;;;;;;;7.78;84.17;100443.66;5064082;28;20464;-70
2022/04/14 04:55:32;;;;;;;489.27;82.13;;;;;;;7.80;84.05;100443.69;5064144;28;20111;-68
2022/04/14 04:57:58;;;;;;;508.23;80.90;;;;;;;7.78;84.61;100441.09;5063950;28;20025;-70
2022/04/14 05:00:23;;;;;;;444.98;71.18;;;;;;;7.78;84.78;100455.75;5064231;28;20040;-69
2022/04/14 05:02:49;;;;;;;405.58;67.22;;;;;;;7.76;85.12;100452.28;5063960;28;20088;-72
2022/04/14 05:05:14;;;;;;;288.65;61.65;;;;;;;7.78;85.08;100451.44;5063948;28;20024;-68
2022/04/14 05:07:39;;;;;;;428.95;72.03;;;;;;;7.82;85.13;100447.13;5063795;28;20119;-67
2022/04/14 05:10:05;;;;;;;325.65;66.30;;;;;;;7.85;85.21;100454.91;5064121;28;20021;-66
2022/04/14 05:12:31;;;;;;;369.67;65.75;;;;;;;7.83;85.33;100459.19;5063984;28;20097;-66
2022/04/14 05:14:57;;;;;;;431.98;68.55;;;;;;;7.86;85.75;100459.19;5063912;28;20066;-66
2022/04/14 05:17:22;;;;;;;296.08;62.92;;;;;;;7.87;85.68;100460.06;5063973;28;20017;-67
2022/04/14 05:19:47;;;;;;;390.65;70.32;;;;;;;7.94;85.65;100466.97;5063733;28;20029;-66
2022/04/14 05:22:13;;;;;;;373.25;64.38;;;;;;;8.01;85.45;100470.47;5063481;28;20067;-68
2022/04/14 05:24:38;;;;;;;317.73;63.30;;;;;;;8.01;85.72;100473.91;5063643;28;20035;-67
2022/04/14 05:27:04;;;;;;;424.63;70.47;;;;;;;8.06;85.47;100471.34;5063602;28;20032;-67
2022/04/14 05:29:30;;;;;;;383.48;67.10;;;;;;;8.11;85.41;100471.34;5063483;28;20043;-66
2022/04/14 05:31:56;;;;;;;312.92;65.10;;;;;;;8.11;85.28;100467.06;5061867;28;20094;-66
2022/04/14 05:34:22;;;;;;;312.42;65.05;;;;;;;8.12;85.45;100473.06;5063207;28;20604;-68
2022/04/14 05:36:47;;;;;;;382.33;67.15;;;;;;;8.12;85.36;100471.38;5063041;28;20021;-66
2022/04/14 05:39:12;;;;;;;373.13;68.00;;;;;;;8.14;85.00;100473.94;5063350;28;20036;-67
2022/04/14 05:41:38;;;;;;;412.83;73.18;;;;;;;8.13;85.01;100475.66;5063430;28;20032;-66
2022/04/14 05:44:03;;;;;;;407.50;66.40;;;;;;;8.15;85.10;100481.72;5063593;28;20074;-67
2022/04/14 05:46:29;;;;;;;331.90;64.55;;;;;;;8.13;84.93;100480.00;5063512;28;20536;-66
2022/04/14 05:48:54;;;;;;;267.75;62.25;;;;;;;8.15;85.23;100481.72;5063463;28;20025;-66
2022/04/14 05:51:21;;;;;;;325.05;66.28;;;;;;;8.15;85.56;100481.72;5062638;28;20020;-66
2022/04/14 05:53:50;;;;;;;267.83;60.35;;;;;;;8.23;85.39;100483.44;5044020;28;20139;-66
2022/04/14 05:56:17;;;;;;;366.00;64.10;;;;;;;8.24;85.48;100482.59;5063278;28;20021;-66
2022/04/14 05:58:43;;;;;;;298.77;63.78;;;;;;;8.24;85.31;100483.44;5063384;28;20013;-66
2022/04/14 06:01:08;;;;;;;348.15;62.03;;;;;;;8.23;85.29;100473.97;5063280;28;20047;-66
2022/04/14 06:03:33;;;;;;;364.70;63.85;;;;;;;8.27;85.32;100480.03;5063150;28;20017;-67
2022/04/14 06:05:58;;;;;;;224.07;55.53;;;;;;;8.26;85.64;100483.47;5063163;28;20056;-66
2022/04/14 06:08:24;;;;;;;256.42;59.42;;;;;;;8.28;85.68;100473.97;5062904;28;20043;-66
2022/04/14 06:10:49;;;;;;;389.23;66.95;;;;;;;8.30;85.76;100480.03;5063184;28;20241;-66
2022/04/14 06:13:14;;;;;;;321.27;61.78;;;;;;;8.38;85.53;100483.50;5063050;28;20032;-64
2022/04/14 06:15:40;;;;;;;351.98;62.10;;;;;;;8.42;85.55;100484.34;5044879;28;20021;-66
2022/04/14 06:18:05;;;;;;;262.98;57.08;;;;;;;8.40;85.72;100479.16;5063101;28;20536;-66
2022/04/14 06:20:30;;;;;;;301.27;58.63;;;;;;;8.40;85.87;100475.75;5044924;28;20032;-66
2022/04/14 06:22:58;;;;;;;296.98;56.65;;;;;;;8.41;85.42;100482.63;5044631;28;20055;-66
2022/04/14 06:25:24;;;;;;;280.85;53.78;;;;;;;8.36;85.72;100474.00;5062880;28;20056;-66
2022/04/14 06:27:51;;;;;;;258.13;49.00;;;;;;;8.35;86.11;100483.50;5062922;28;20358;-67
2022/04/14 06:30:18;;;;;;;235.70;50.75;;;;;;;8.34;86.26;100483.50;5062671;28;20051;-67
2022/04/14 06:32:57;;;;;;;231.45;51.72;;;;;;;8.31;86.54;100476.56;5044736;28;20040;-66
2022/04/14 06:35:23;;;;;;;166.50;46.38;;;;;;;8.35;86.63;100483.50;5063015;28;20025;-66
2022/04/14 06:37:48;;;;;;;223.98;46.67;;;;;;;8.38;86.71;100478.31;5062659;28;20026;-67
2022/04/14 06:40:13;;;;;;;221.57;47.85;;;;;;;8.47;86.39;100486.94;5062898;28;20024;-66
2022/04/14 06:42:39;;;;;;;161.65;43.45;;;;;;;8.46;86.56;100491.28;5044691;28;20021;-66
2022/04/14 06:45:04;;;;;;;117.07;40.22;;;;;;;8.45;86.42;100491.28;5062754;28;20045;-65
2022/04/14 06:47:30;;;;;;;166.50;42.72;;;;;;;8.48;86.30;100494.72;5044611;28;20021;-65
2022/04/14 06:49:56;;;;;;;282.50;50.42;;;;;;;8.46;86.44;100493.00;5062681;28;20326;-65
2022/04/14 06:52:21;;;;;;;117.07;41.65;;;;;;;8.45;86.55;100499.03;5062327;28;20046;-65
2022/04/14 06:54:48;;;;;;;129.20;36.95;;;;;;;8.41;86.41;100504.19;5062514;28;20033;-65
2022/04/14 06:57:14;;;;;;;130.15;38.90;;;;;;;8.40;86.51;100507.63;5062447;28;20049;-65
2022/04/14 06:59:39;;;;;;;110.47;37.65;;;;;;;8.36;86.35;100500.72;5044631;28;20033;-66
2022/04/14 07:02:05;;;;;;;98.78;37.22;;;;;;;8.37;86.43;100504.19;5044631;28;20028;-65
2022/04/14 07:04:30;;;;;;;95.22;34.72;;;;;;;8.30;86.79;100499.00;5063990;28;20035;-67
2022/04/14 07:06:55;;;;;;;85.53;31.27;;;;;;;8.28;86.82;100497.25;5066394;28;20017;-65
2022/04/14 07:09:21;;;;;;;108.20;34.10;;;;;;;8.26;86.85;100505.00;5066138;28;20102;-66
2022/04/14 07:11:47;;;;;;;72.03;30.35;;;;;;;8.19;87.17;100488.59;5066293;28;20031;-67
2022/04/14 07:14:14;;;;;;;79.15;31.83;;;;;;;8.23;87.19;100489.50;5066173;28;20534;-68
2022/04/14 07:16:40;;;;;;;65.70;29.70;;;;;;;8.29;87.00;100491.25;5066264;28;20025;-67
2022/04/14 07:19:06;;;;;;;68.70;30.95;;;;;;;8.29;86.84;100492.09;5066420;28;20028;-67
2022/04/14 07:21:31;;;;;;;75.60;31.80;;;;;;;8.28;87.08;100486.91;5065711;28;20070;-67
2022/04/14 07:23:56;;;;;;;70.43;32.85;;;;;;;8.33;87.00;100490.38;5065633;28;20017;-67
2022/04/14 07:26:22;;;;;;;79.93;30.98;;;;;;;8.36;86.98;100484.34;5066147;28;20021;-67
2022/04/14 07:28:47;;;;;;;91.55;33.92;;;;;;;8.36;87.00;100484.34;5065671;28;20134;-67
2022/04/14 07:31:12;;;;;;;78.22;35.72;;;;;;;8.40;87.09;100491.25;5065560;28;20543;-67
2022/04/14 07:33:38;;;;;;;79.82;33.55;;;;;;;8.45;86.80;100483.50;5065904;28;20054;-67
2022/04/14 07:36:04;;;;;;;77.82;33.40;;;;;;;8.57;86.73;100480.97;5065666;28;20028;-66
2022/04/14 07:38:29;;;;;;;77.50;33.35;;;;;;;8.57;87.33;100487.84;5065546;28;20025;-68
2022/04/14 07:40:56;;;;;;;74.63;32.78;;;;;;;8.71;86.88;100480.09;5065611;28;20056;-68
2022/04/14 07:43:22;;;;;;;82.15;33.20;;;;;;;8.77;87.09;100480.97;5047727;28;20024;-67
2022/04/14 07:45:47;;;;;;;62.60;32.17;;;;;;;8.86;86.84;100485.31;5065756;28;20048;-67
2022/04/14 07:48:13;;;;;;;71.65;33.28;;;;;;;8.98;86.98;100481.00;5047488;28;20032;-68
2022/04/14 07:50:38;;;;;;;61.78;31.08;;;;;;;9.11;86.92;100474.03;5065596;28;20025;-69
2022/04/14 07:53:04;;;;;;;57.53;31.08;;;;;;;9.31;86.86;100481.81;5064967;28;20040;-68
2022/04/14 07:55:34;;;;;;;57.75;31.63;;;;;;;9.41;86.76;100478.31;5065206;28;20043;-69
2022/04/14 07:58:02;;;;;;;46.17;27.67;;;;;;;9.54;86.89;100481.75;5065477;28;20020;-68
2022/04/14 08:00:28;;;;;;;43.10;26.48;;;;;;;9.61;86.64;100469.63;5065395;28;20055;-68
2022/04/14 08:02:55;;;;;;;41.97;25.75;;;;;;;9.70;86.69;100475.63;5046878;28;20025;-67
2022/04/14 08:05:29;;;;;;;43.78;26.20;;;;;;;9.77;86.28;100478.22;5047029;28;20017;-67
2022/04/14 08:07:55;;;;;;;46.25;27.38;;;;;;;9.85;86.38;100483.38;5064829;28;20056;-66
2022/04/14 08:10:21;;;;;;;48.38;25.55;;;;;;;9.88;86.30;100480.75;5065144;28;20039;-65
2022/04/14 08:12:47;;;;;;;42.38;24.80;;;;;;;9.96;86.20;100483.31;5065034;28;20021;-65
2022/04/14 08:15:12;;;;;;;42.25;25.75;;;;;;;9.95;85.89;100476.41;5065079;28;20029;-65
2022/04/14 08:17:40;;;;;;;38.75;25.92;;;;;;;10.04;85.97;100486.75;5064470;28;20089;-66
2022/04/14 08:20:07;;;;;;;38.42;23.30;;;;;;;10.10;86.04;100483.25;5064866;28;20031;-66
2022/04/14 08:22:50;;;;;;;41.83;25.85;;;;;;;10.16;85.86;100490.13;5064457;28;20033;-65
2022/04/14 08:25:20;;;;;;;;;;;;;;;10.22;85.88;100486.66;5047180;28;20029;-64
2022/04/14 08:27:47;;;;;;;36.72;23.30;;;;;;;10.20;85.45;100481.47;5064722;28;19909;-65
2022/04/14 08:30:14;;;;;;;36.25;24.30;;;;;;;10.24;85.20;100482.31;5064619;28;20373;-65
2022/04/14 08:32:40;;;;;;;37.05;24.30;;;;;;;10.23;84.96;100493.53;5046637;28;20033;-65
2022/04/14 08:35:06;;;;;;;35.60;22.25;;;;;;;10.22;84.73;100491.84;5064809;28;20055;-65
2022/04/14 08:37:31;;;;;;;36.35;23.52;;;;;;;10.14;84.66;100490.13;5046485;28;20045;-65
2022/04/14 08:39:57;;;;;;;35.17;21.70;;;;;;;10.19;84.50;100499.63;5064634;28;20036;-64
2022/04/14 08:42:32;;;;;;;33.85;21.75;;;;;;;10.17;84.53;100502.25;5064476;28;20025;-64
2022/04/14 08:45:03;;;;;;;36.65;23.38;;;;;;;10.17;84.08;100491.84;5064439;28;20052;-65
2022/04/14 08:47:29;;;;;;;38.17;24.13;;;;;;;10.11;84.02;100500.53;5064203;28;20025;-65
2022/04/14 08:49:56;;;;;;;38.83;24.83;;;;;;;10.10;84.22;100503.13;5064186;28;20025;-64
2022/04/14 08:52:22;;;;;;;39.28;25.13;;;;;;;10.17;84.41;100500.47;5064491;28;20110;-64
2022/04/14 08:54:49;;;;;;;36.45;22.85;;;;;;;10.27;83.92;100493.53;5064107;28;20056;-65
2022/04/14 08:57:16;;;;;;;38.90;22.48;;;;;;;10.28;83.57;100500.47;5064125;28;20107;-63
2022/04/14 08:59:43;;;;;;;38.95;24.95;;;;;;;10.20;83.41;100491.84;5064170;28;20044;-65
2022/04/14 09:02:14;;;;;;;65.88;25.20;;;;;;;10.12;83.31;100502.25;5064117;28;20507;-64
2022/04/14 09:04:41;;;;;;;43.10;25.35;;;;;;;10.02;83.10;100500.56;5046194;28;20044;-64
2022/04/14 09:07:08;;;;;;;41.50;23.83;;;;;;;9.97;83.67;100510.13;5046058;28;20031;-64
2022/04/14 09:09:33;;;;;;;60.80;25.05;;;;;;;9.98;83.75;100507.53;5062549;28;20040;-64
2022/04/14 09:11:59;;;;;;;43.47;23.77;;;;;;;9.95;83.68;100507.53;5045986;28;20024;-64
2022/04/14 09:14:24;;;;;;;42.60;23.98;;;;;;;9.92;83.93;100507.53;5064192;28;20063;-64
2022/04/14 09:16:50;;;;;;;84.07;27.60;;;;;;;9.89;84.16;100503.22;5045868;28;20055;-65
2022/04/14 09:19:16;;;;;;;33.08;21.58;;;;;;;9.94;83.79;100507.50;5064031;28;20020;-65
2022/04/14 09:21:59;;;;;;;31.80;21.55;;;;;;;9.92;83.74;100510.97;5063673;28;20112;-65
2022/04/14 09:24:43;;;;;;;26.90;18.58;;;;;;;9.88;83.71;100508.41;5045506;28;20029;-64
2022/04/14 09:27:09;;;;;;;25.67;17.98;;;;;;;9.89;83.45;100504.94;5063234;28;20017;-65
2022/04/14 09:29:35;;;;;;;26.95;18.52;;;;;;;9.89;83.63;100511.00;5062983;28;20028;-64
2022/04/14 09:32:01;;;;;;;24.63;17.90;;;;;;;9.96;83.86;100511.84;5063175;28;20045;-63
2022/04/14 09:34:51;;;;;;;25.05;17.67;;;;;;;10.04;83.50;100506.63;5063376;28;20040;-63
2022/04/14 09:37:17;;;;;;;22.25;16.67;;;;;;;10.04;83.43;100502.31;5063396;28;20039;-63
2022/04/14 09:40:09;;;;;;;21.45;15.80;;;;;;;10.15;83.42;100511.75;5063033;28;20473;-65
2022/04/14 09:42:39;;;;;;;22.65;15.65;;;;;;;10.14;83.25;100507.44;5058751;28;20461;-64
2022/04/14 09:45:25;;;;;;;23.92;17.92;;;;;;;10.05;83.49;100505.75;5063501;28;20028;-65
2022/04/14 09:47:52;;;;;;;22.73;16.67;;;;;;;10.00;83.37;100499.72;5063398;28;20025;-65
2022/04/14 09:50:32;;;;;;;23.88;16.90;;;;;;;9.97;83.37;100502.34;5063238;28;20029;-65
2022/04/14 09:53:07;;;;;;;21.40;15.65;;;;;;;9.97;83.76;100507.53;5063042;28;20025;-65
2022/04/14 09:55:35;;;;;;;25.00;17.67;;;;;;;9.97;83.68;100507.53;5063233;28;20031;-64
2022/04/14 09:58:19;;;;;;;23.88;17.45;;;;;;;10.01;83.95;100504.91;5063322;28;20028;-64
2022/04/14 10:00:49;;;;;;;23.75;16.85;;;;;;;10.10;83.32;100498.81;5062966;28;20025;-64
2022/04/14 10:03:26;;;;;;;22.83;16.65;;;;;;;10.21;83.19;100503.09;5063004;28;20048;-63
2022/04/14 10:05:53;;;;;;;21.98;16.60;;;;;;;10.28;83.09;100505.66;5063241;28;20025;-63
2022/04/14 10:08:19;;;;;;;22.77;16.85;;;;;;;10.31;83.33;100507.34;5062985;28;20043;-64
2022/04/14 10:10:47;;;;;;;20.25;15.18;;;;;;;10.44;82.70;100507.28;5063050;28;20499;-65
2022/04/14 10:13:15;;;;;;;20.38;15.38;;;;;;;10.54;82.75;100504.63;5063075;28;20028;-64
2022/04/14 10:15:42;;;;;;;20.50;15.27;;;;;;;10.62;82.33;100499.38;5062937;28;20068;-64
2022/04/14 10:18:12;;;;;;;20.92;15.15;;;;;;;10.74;82.35;100503.63;5063133;28;20020;-65
2022/04/14 10:20:40;;;;;;;17.25;12.95;;;;;;;10.82;82.08;100503.56;5062972;28;20389;-66
2022/04/14 10:23:07;;;;;;;18.05;13.30;;;;;;;10.93;81.71;100506.09;5062627;28;20147;-66
2022/04/14 10:25:36;;;;;;;15.07;12.05;;;;;;;10.96;81.65;100500.03;5062885;28;20408;-68
2022/04/14 10:28:03;;;;;;;17.15;13.05;;;;;;;11.07;81.61;100511.16;5062759;28;20024;-66
2022/04/14 10:30:29;;;;;;;15.05;12.25;;;;;;;11.09;81.92;100501.63;5062633;28;20052;-66
2022/04/14 10:32:55;;;;;;;16.23;12.45;;;;;;;11.12;81.97;100501.59;5062758;28;20021;-65
2022/04/14 10:35:25;;;;;;;14.80;11.98;;;;;;;11.26;81.40;100504.06;5044954;28;20106;-68
2022/04/14 10:38:01;;;;;;;16.38;12.18;;;;;;;11.31;81.49;100501.41;5044335;28;20017;-69
2022/04/14 10:40:30;;;;;;;15.88;11.85;;;;;;;11.38;81.12;100500.47;5065806;28;20402;-68
2022/04/14 10:42:57;;;;;;;14.85;11.35;;;;;;;11.38;81.22;100505.69;5066534;28;20068;-67
2022/04/14 10:45:23;;;;;;;14.98;12.05;;;;;;;11.32;81.33;100508.34;5066321;28;20074;-67
2022/04/14 10:47:54;;;;;;;15.82;11.98;;;;;;;11.25;80.94;100511.84;5066631;28;20072;-66
2022/04/14 10:50:34;;;;;;;18.90;12.80;;;;;;;11.20;81.29;100516.25;5048634;28;20047;-67
2022/04/14 10:53:01;;;;;;;17.02;11.00;;;;;;;11.06;81.01;100512.03;5066034;28;20025;-66
2022/04/14 10:55:44;;;;;;;18.20;12.65;;;;;;;10.90;81.41;100516.50;5048624;28;20028;-67
2022/04/14 10:58:28;;;;;;;17.02;12.73;;;;;;;10.81;81.62;100517.44;5048418;28;20182;-66
2022/04/14 11:00:55;;;;;;;16.55;12.20;;;;;;;10.73;81.62;100524.41;5066427;28;20055;-66
2022/04/14 11:03:47;;;;;;;18.63;12.32;;;;;;;10.68;81.84;100518.41;5066094;28;20033;-67
2022/04/14 11:06:35;;;;;;;17.10;11.10;;;;;;;10.64;82.12;100517.53;5066420;28;20021;-68
2022/04/14 11:09:00;;;;;;;21.27;12.90;;;;;;;10.56;81.87;100517.59;5048021;28;20044;-68
2022/04/14 11:11:25;;;;;;;17.73;12.15;;;;;;;10.45;82.02;100524.59;5048178;28;20025;-67